createdAt,value
2017-10-27T00:01:32.088Z,14.28
2017-10-27T00:03:59.576Z,14.18
2017-10-27T00:06:27.165Z,14.10
2017-10-27T00:08:54.643Z,14.07
2017-10-27T00:11:22.097Z,14.12
2017-10-27T00:13:49.652Z,14.06
2017-10-27T00:16:17.136Z,13.99
2017-10-27T00:18:44.822Z,13.94
2017-10-27T00:21:12.482Z,13.97
2017-10-27T00:23:39.954Z,13.91
2017-10-27T00:26:07.426Z,14.05
2017-10-27T00:28:34.953Z,13.94
2017-10-27T00:31:02.433Z,13.96
2017-10-27T00:33:29.889Z,14.02
2017-10-27T00:35:57.448Z,13.91
2017-10-27T00:38:24.906Z,13.91
2017-10-27T00:40:52.373Z,13.85
2017-10-27T00:43:19.918Z,13.81
2017-10-27T00:45:47.398Z,13.84
2017-10-27T00:48:14.940Z,13.94
2017-10-27T00:50:42.447Z,14.04
2017-10-27T00:53:09.921Z,13.97
2017-10-27T00:55:37.394Z,13.91
2017-10-27T00:58:04.927Z,13.83
2017-10-27T01:00:32.406Z,13.94
2017-10-27T01:02:59.873Z,13.94
2017-10-27T01:05:27.358Z,13.84
2017-10-27T01:07:54.858Z,13.83
2017-10-27T01:10:22.315Z,13.88
2017-10-27T01:12:49.833Z,13.94
2017-10-27T01:15:17.448Z,14.02
2017-10-27T01:17:44.915Z,14.03
2017-10-27T01:20:12.435Z,14.00
2017-10-27T01:22:39.928Z,13.84
2017-10-27T01:25:07.397Z,13.91
2017-10-27T01:27:34.920Z,13.89
2017-10-27T01:30:02.400Z,13.83
2017-10-27T01:32:29.889Z,13.91
2017-10-27T01:34:57.410Z,13.91
2017-10-27T01:37:24.893Z,13.80
2017-10-27T01:39:52.379Z,13.84
2017-10-27T01:42:19.883Z,13.92
2017-10-27T01:44:47.349Z,13.93
2017-10-27T01:47:14.831Z,13.77
2017-10-27T01:49:42.344Z,13.74
2017-10-27T01:52:09.881Z,13.93
2017-10-27T01:54:37.598Z,13.89
2017-10-27T01:57:05.105Z,14.09
2017-10-27T01:59:32.556Z,14.12
2017-10-27T02:02:00.029Z,14.12
2017-10-27T02:04:27.631Z,14.05
2017-10-27T02:06:55.092Z,14.20
2017-10-27T02:09:22.601Z,14.22
2017-10-27T02:11:50.604Z,14.22
2017-10-27T02:14:18.100Z,14.18
2017-10-27T02:16:45.576Z,14.23
2017-10-27T02:19:13.090Z,14.22
2017-10-27T02:21:40.576Z,14.27
2017-10-27T02:24:08.036Z,14.16
2017-10-27T02:26:35.547Z,14.34
2017-10-27T02:29:02.996Z,14.46
2017-10-27T02:31:30.473Z,14.41
2017-10-27T02:33:57.985Z,14.41
2017-10-27T02:36:25.442Z,14.41
2017-10-27T02:38:52.941Z,14.40
2017-10-27T02:41:20.460Z,14.41
2017-10-27T02:43:47.932Z,14.43
2017-10-27T02:46:15.515Z,14.41
2017-10-27T02:48:43.007Z,14.37
2017-10-27T02:51:10.487Z,14.42
2017-10-27T02:53:37.948Z,14.54
2017-10-27T02:56:05.440Z,14.52
2017-10-27T02:58:33.018Z,14.60
2017-10-27T03:01:00.495Z,14.51
2017-10-27T03:03:27.994Z,14.48
2017-10-27T03:05:55.468Z,14.43
2017-10-27T03:08:22.993Z,14.42
2017-10-27T03:10:50.494Z,14.59
2017-10-27T03:13:17.955Z,14.57
2017-10-27T03:15:45.417Z,14.54
2017-10-27T03:18:12.935Z,14.59
2017-10-27T03:20:40.411Z,14.57
2017-10-27T03:23:07.883Z,14.66
2017-10-27T03:25:35.433Z,14.66
2017-10-27T03:28:02.909Z,14.82
2017-10-27T03:30:30.402Z,14.77
2017-10-27T03:32:57.932Z,14.73
2017-10-27T03:35:25.399Z,14.73
2017-10-27T03:37:52.858Z,14.77
2017-10-27T03:40:20.375Z,14.71
2017-10-27T03:42:47.863Z,14.76
2017-10-27T03:45:15.427Z,14.68
2017-10-27T03:47:42.910Z,14.69
2017-10-27T03:50:11.201Z,14.78
2017-10-27T03:52:38.685Z,14.68
2017-10-27T03:55:06.165Z,14.59
2017-10-27T03:57:33.628Z,14.76
2017-10-27T04:00:01.095Z,14.65
2017-10-27T04:02:28.614Z,14.61
2017-10-27T04:04:56.141Z,14.72
2017-10-27T04:07:23.610Z,14.66
2017-10-27T04:09:51.120Z,14.72
2017-10-27T04:12:18.586Z,14.68
2017-10-27T04:14:46.068Z,14.67
2017-10-27T04:17:13.608Z,14.63
2017-10-27T04:19:41.074Z,14.69
2017-10-27T04:22:08.536Z,14.80
2017-10-27T04:24:36.037Z,14.78
2017-10-27T04:27:03.516Z,14.72
2017-10-27T04:29:31.014Z,14.58
2017-10-27T04:31:58.503Z,14.53
2017-10-27T04:34:25.959Z,14.49
2017-10-27T04:36:53.428Z,14.49
2017-10-27T04:39:20.932Z,14.52
2017-10-27T04:41:48.395Z,14.66
2017-10-27T04:44:15.918Z,14.62
2017-10-27T04:46:43.412Z,14.65
2017-10-27T04:49:10.892Z,14.68
2017-10-27T04:51:38.368Z,14.62
2017-10-27T04:54:05.878Z,14.77
2017-10-27T04:56:33.575Z,14.81
2017-10-27T04:59:01.053Z,14.70
2017-10-27T05:01:28.537Z,14.75
2017-10-27T05:03:55.998Z,14.61
2017-10-27T05:06:23.502Z,14.62
2017-10-27T05:08:51.096Z,14.64
2017-10-27T05:11:18.562Z,14.64
2017-10-27T05:13:46.043Z,14.73
2017-10-27T05:16:13.546Z,14.71
2017-10-27T05:18:46.577Z,14.82
2017-10-27T05:21:19.630Z,14.76
2017-10-27T05:23:52.573Z,14.79
2017-10-27T05:26:20.073Z,14.77
2017-10-27T05:28:47.535Z,14.77
2017-10-27T05:31:15.008Z,14.77
2017-10-27T05:33:42.571Z,14.79
2017-10-27T05:36:10.065Z,14.69
2017-10-27T05:38:37.559Z,14.73
2017-10-27T05:41:05.065Z,14.69
2017-10-27T05:43:32.527Z,14.69
2017-10-27T05:46:00.040Z,14.78
2017-10-27T05:48:27.580Z,14.77
2017-10-27T05:50:55.050Z,14.80
2017-10-27T05:53:22.521Z,14.74
2017-10-27T05:55:50.033Z,14.64
2017-10-27T05:58:18.006Z,14.63
2017-10-27T06:00:45.798Z,14.58
2017-10-27T06:03:13.305Z,14.58
2017-10-27T06:05:40.780Z,14.48
2017-10-27T06:08:08.252Z,14.45
2017-10-27T06:10:35.774Z,14.53
2017-10-27T06:13:03.238Z,14.58
2017-10-27T06:15:30.723Z,14.58
2017-10-27T06:17:58.254Z,14.50
2017-10-27T06:20:25.742Z,14.53
2017-10-27T06:22:53.224Z,14.47
2017-10-27T06:25:20.718Z,14.43
2017-10-27T06:27:48.185Z,14.44
2017-10-27T06:30:15.660Z,14.41
2017-10-27T06:32:43.163Z,14.43
2017-10-27T06:35:10.635Z,14.39
2017-10-27T06:37:38.110Z,14.41
2017-10-27T06:40:05.675Z,14.38
2017-10-27T06:42:33.139Z,14.41
2017-10-27T06:45:00.608Z,14.43
2017-10-27T06:47:28.109Z,14.46
2017-10-27T06:49:55.596Z,14.50
2017-10-27T06:52:23.069Z,14.52
2017-10-27T06:54:50.592Z,14.57
2017-10-27T06:57:18.051Z,14.66
2017-10-27T06:59:45.521Z,14.70
2017-10-27T07:02:13.121Z,14.71
2017-10-27T07:04:40.605Z,14.69
2017-10-27T07:07:08.118Z,14.72
2017-10-27T07:09:35.674Z,14.71
2017-10-27T07:12:03.208Z,14.74
2017-10-27T07:14:30.923Z,14.80
2017-10-27T07:16:58.443Z,14.84
2017-10-27T07:19:25.976Z,15.01
2017-10-27T07:21:53.488Z,15.10
2017-10-27T07:24:21.023Z,15.07
2017-10-27T07:26:48.535Z,15.13
2017-10-27T07:29:16.027Z,15.16
2017-10-27T07:31:43.661Z,15.16
2017-10-27T07:34:11.181Z,15.10
2017-10-27T07:36:38.678Z,15.08
2017-10-27T07:39:06.198Z,15.04
2017-10-27T07:41:33.720Z,15.04
2017-10-27T07:44:01.208Z,15.05
2017-10-27T07:46:28.759Z,15.16
2017-10-27T07:48:56.447Z,15.24
2017-10-27T07:51:23.957Z,15.41
2017-10-27T07:53:51.502Z,15.69
2017-10-27T07:56:19.011Z,15.91
2017-10-27T07:58:46.488Z,16.07
2017-10-27T08:01:14.050Z,16.15
2017-10-27T08:03:41.535Z,16.25
2017-10-27T08:06:09.042Z,16.31
2017-10-27T08:08:36.611Z,16.39
2017-10-27T08:11:04.127Z,16.37
2017-10-27T08:13:31.641Z,16.21
2017-10-27T08:15:59.203Z,16.11
2017-10-27T08:18:27.039Z,15.91
2017-10-27T08:20:54.539Z,15.91
2017-10-27T08:23:22.094Z,15.70
2017-10-27T08:25:49.711Z,15.57
2017-10-27T08:28:17.463Z,15.69
2017-10-27T08:30:45.290Z,16.05
2017-10-27T08:33:12.826Z,16.10
2017-10-27T08:35:40.426Z,16.26
2017-10-27T08:38:07.999Z,16.39
2017-10-27T08:40:35.515Z,16.24
2017-10-27T08:43:09.747Z,16.30
2017-10-27T08:45:37.259Z,16.53
2017-10-27T08:48:04.752Z,16.47
2017-10-27T08:50:32.568Z,16.40
2017-10-27T08:53:00.230Z,16.42
2017-10-27T08:55:27.721Z,16.32
2017-10-27T08:57:55.258Z,16.30
2017-10-27T09:00:22.796Z,16.24
2017-10-27T09:02:50.303Z,16.08
2017-10-27T09:05:17.859Z,15.98
2017-10-27T09:07:45.361Z,16.01
2017-10-27T09:10:12.847Z,16.00
2017-10-27T09:12:40.377Z,15.91
2017-10-27T09:15:07.876Z,15.89
2017-10-27T09:17:35.369Z,15.82
2017-10-27T09:20:02.918Z,15.84
2017-10-27T09:22:30.630Z,15.82
2017-10-27T09:24:58.140Z,15.77
2017-10-27T09:27:25.677Z,15.73
2017-10-27T09:29:53.180Z,15.60
2017-10-27T09:32:20.683Z,15.51
2017-10-27T09:34:48.228Z,15.53
2017-10-27T09:37:15.707Z,15.59
2017-10-27T09:39:43.180Z,15.33
2017-10-27T09:42:10.736Z,14.96
2017-10-27T09:44:38.260Z,14.67
2017-10-27T09:47:05.917Z,12.77
2017-10-27T09:49:33.421Z,11.60
2017-10-27T09:52:00.894Z,11.07
2017-10-27T09:54:28.713Z,10.70
2017-10-27T09:56:56.261Z,10.52
2017-10-27T09:59:23.773Z,10.39
2017-10-27T10:01:51.281Z,10.28
2017-10-27T10:04:18.817Z,10.17
2017-10-27T10:06:46.991Z,9.95
2017-10-27T10:09:14.499Z,9.77
2017-10-27T10:11:42.046Z,9.61
2017-10-27T10:14:09.570Z,9.41
2017-10-27T10:16:37.075Z,9.30
2017-10-27T10:19:04.603Z,9.23
2017-10-27T10:21:32.100Z,9.11
2017-10-27T10:23:59.687Z,9.19
2017-10-27T10:26:27.330Z,9.11
2017-10-27T10:28:54.833Z,9.10
2017-10-27T10:31:22.318Z,8.97
2017-10-27T10:33:49.841Z,8.94
2017-10-27T10:36:17.381Z,8.99
2017-10-27T10:38:44.913Z,8.93
2017-10-27T10:41:12.433Z,8.98
2017-10-27T10:43:39.941Z,9.02
2017-10-27T10:46:07.597Z,9.11
2017-10-27T10:48:35.125Z,9.13
2017-10-27T10:51:02.671Z,9.08
2017-10-27T10:53:30.374Z,9.15
2017-10-27T10:55:57.922Z,9.32
2017-10-27T10:58:25.414Z,9.36
2017-10-27T11:00:53.248Z,9.50
2017-10-27T11:03:20.826Z,9.47
2017-10-27T11:05:48.305Z,9.52
2017-10-27T11:08:16.129Z,9.52
2017-10-27T11:10:43.757Z,9.47
2017-10-27T11:13:11.372Z,9.45
2017-10-27T11:15:38.938Z,9.49
2017-10-27T11:18:06.490Z,9.53
2017-10-27T11:20:34.481Z,9.43
2017-10-27T11:23:02.076Z,9.51
2017-10-27T11:25:29.670Z,9.57
2017-10-27T11:27:57.268Z,9.55
2017-10-27T11:30:25.454Z,9.50
2017-10-27T11:32:53.024Z,9.60
2017-10-27T11:35:20.549Z,9.58
2017-10-27T11:37:48.115Z,9.53
2017-10-27T11:40:15.772Z,9.63
2017-10-27T11:42:43.895Z,9.64
2017-10-27T11:45:11.472Z,9.56
2017-10-27T11:47:39.075Z,9.57
2017-10-27T11:50:06.664Z,9.52
2017-10-27T11:52:34.832Z,9.46
2017-10-27T11:55:02.468Z,9.38
2017-10-27T11:57:30.045Z,9.31
2017-10-27T11:59:57.569Z,9.31
2017-10-27T12:02:25.180Z,9.33
2017-10-27T12:04:52.689Z,9.36
2017-10-27T12:07:20.175Z,9.42
2017-10-27T12:09:47.742Z,9.46
2017-10-27T12:12:15.248Z,9.56
2017-10-27T12:14:42.722Z,9.51
2017-10-27T12:17:10.229Z,9.52
2017-10-27T12:19:37.738Z,9.58
2017-10-27T12:22:05.322Z,9.54
2017-10-27T12:24:32.833Z,9.59
2017-10-27T12:27:00.314Z,9.58
2017-10-27T12:29:27.790Z,9.70
2017-10-27T12:31:55.334Z,9.74
2017-10-27T12:34:22.831Z,9.87
2017-10-27T12:36:50.480Z,9.97
2017-10-27T12:39:18.038Z,10.05
2017-10-27T12:41:45.514Z,10.28
2017-10-27T12:44:13.049Z,10.32
2017-10-27T12:46:40.567Z,10.43
2017-10-27T12:49:08.057Z,10.56
2017-10-27T12:51:35.537Z,10.61
2017-10-27T12:54:03.082Z,10.77
2017-10-27T12:56:30.746Z,10.96
2017-10-27T12:58:58.242Z,11.00
2017-10-27T13:01:25.770Z,11.12
2017-10-27T13:03:53.382Z,11.24
2017-10-27T13:06:20.875Z,11.40
2017-10-27T13:08:48.388Z,11.19
2017-10-27T13:11:15.911Z,11.18
2017-10-27T13:13:43.418Z,10.99
2017-10-27T13:16:10.930Z,10.80
2017-10-27T13:18:38.447Z,10.62
2017-10-27T13:21:06.864Z,10.63
2017-10-27T13:23:34.425Z,10.56
2017-10-27T13:26:01.913Z,10.59
2017-10-27T13:28:29.387Z,10.57
2017-10-27T13:30:56.868Z,10.75
2017-10-27T13:33:24.342Z,11.14
2017-10-27T13:35:51.865Z,10.95
2017-10-27T13:38:19.391Z,11.04
2017-10-27T13:40:46.896Z,11.19
2017-10-27T13:43:14.356Z,11.15
2017-10-27T13:45:41.878Z,11.34
2017-10-27T13:48:09.396Z,11.15
2017-10-27T13:50:36.993Z,11.49
2017-10-27T13:53:04.515Z,11.61
2017-10-27T13:55:31.994Z,12.05
2017-10-27T13:57:59.481Z,12.62
2017-10-27T14:00:27.696Z,12.51
2017-10-27T14:02:55.162Z,12.53
2017-10-27T14:05:22.659Z,13.14
2017-10-27T14:07:50.180Z,12.95
2017-10-27T14:10:17.689Z,12.35
2017-10-27T14:12:45.350Z,11.55
2017-10-27T14:15:12.867Z,11.09
2017-10-27T14:17:40.364Z,11.00
2017-10-27T14:20:07.883Z,10.87
2017-10-27T14:22:35.425Z,10.67
2017-10-27T14:25:02.904Z,10.58
2017-10-27T14:27:30.382Z,10.52
2017-10-27T14:29:57.892Z,10.60
2017-10-27T14:32:25.438Z,10.50
2017-10-27T14:34:52.898Z,10.50
2017-10-27T14:37:20.412Z,10.50
2017-10-27T14:39:47.918Z,10.50
2017-10-27T14:42:15.470Z,10.46
2017-10-27T14:44:42.968Z,10.41
2017-10-27T14:47:10.474Z,10.37
2017-10-27T14:49:37.962Z,10.32
2017-10-27T14:52:05.539Z,10.29
2017-10-27T14:54:33.066Z,10.29
2017-10-27T14:57:00.550Z,10.23
2017-10-27T14:59:28.046Z,10.13
2017-10-27T15:01:55.602Z,10.14
2017-10-27T15:04:23.080Z,10.05
2017-10-27T15:06:50.613Z,9.97
2017-10-27T15:09:18.148Z,9.97
2017-10-27T15:11:45.621Z,10.01
2017-10-27T15:14:13.134Z,9.95
2017-10-27T15:16:40.601Z,9.95
2017-10-27T15:19:08.126Z,9.89
2017-10-27T15:21:35.629Z,9.87
2017-10-27T15:24:03.096Z,9.84
2017-10-27T15:26:31.862Z,9.82
2017-10-27T15:28:59.378Z,9.87
2017-10-27T15:31:26.858Z,9.90
2017-10-27T15:33:54.358Z,9.87
2017-10-27T15:36:21.906Z,9.84
2017-10-27T15:38:49.378Z,9.88
2017-10-27T15:41:16.840Z,9.85
2017-10-27T15:43:44.368Z,9.83
2017-10-27T15:46:11.844Z,9.88
2017-10-27T15:48:39.318Z,9.86
2017-10-27T15:51:06.844Z,9.91
2017-10-27T15:53:34.320Z,9.86
2017-10-27T15:56:01.807Z,9.84
2017-10-27T15:58:29.354Z,9.87
2017-10-27T16:00:56.814Z,9.91
2017-10-27T16:03:24.291Z,9.97
2017-10-27T16:05:51.788Z,9.94
2017-10-27T16:08:19.271Z,9.95
2017-10-27T16:10:46.764Z,9.95
2017-10-27T16:13:14.261Z,9.92
2017-10-27T16:15:41.730Z,10.03
2017-10-27T16:18:09.260Z,10.08
2017-10-27T16:20:36.797Z,10.04
2017-10-27T16:23:04.344Z,10.04
2017-10-27T16:25:31.827Z,10.05
2017-10-27T16:27:59.346Z,10.12
2017-10-27T16:30:26.865Z,10.17
2017-10-27T16:32:54.355Z,10.18
2017-10-27T16:35:21.865Z,10.26
2017-10-27T16:37:49.338Z,10.30
2017-10-27T16:40:16.842Z,10.34
2017-10-27T16:42:44.375Z,10.36
2017-10-27T16:45:11.874Z,10.34
2017-10-27T16:47:39.365Z,10.32
2017-10-27T16:50:06.873Z,10.38
2017-10-27T16:52:34.393Z,10.39
2017-10-27T16:55:01.880Z,10.34
2017-10-27T16:57:29.373Z,10.33
2017-10-27T16:59:56.867Z,10.36
2017-10-27T17:02:24.330Z,10.40
2017-10-27T17:04:51.839Z,10.40
2017-10-27T17:07:19.319Z,10.46
2017-10-27T17:09:46.806Z,10.48
2017-10-27T17:12:14.305Z,10.47
2017-10-27T17:14:41.797Z,10.45
2017-10-27T17:17:09.265Z,10.46
2017-10-27T17:19:36.770Z,10.52
2017-10-27T17:22:04.273Z,10.46
2017-10-27T17:24:31.812Z,10.43
2017-10-27T17:26:59.383Z,10.46
2017-10-27T17:29:26.868Z,10.47
2017-10-27T17:31:54.349Z,10.46
2017-10-27T17:34:21.824Z,10.53
2017-10-27T17:36:49.321Z,10.45
2017-10-27T17:39:17.309Z,10.47
2017-10-27T17:41:44.822Z,10.45
2017-10-27T17:44:12.319Z,10.54
2017-10-27T17:46:39.870Z,10.50
2017-10-27T17:49:07.390Z,10.47
2017-10-27T17:51:34.908Z,10.43
2017-10-27T17:54:02.405Z,10.54
2017-10-27T17:56:30.033Z,10.56
2017-10-27T17:58:57.560Z,10.56
2017-10-27T18:01:25.099Z,10.64
2017-10-27T18:03:52.661Z,10.56
2017-10-27T18:06:20.392Z,10.58
2017-10-27T18:08:47.900Z,10.46
2017-10-27T18:11:15.434Z,10.47
2017-10-27T18:13:42.933Z,10.53
2017-10-27T18:16:10.393Z,10.48
2017-10-27T18:18:37.903Z,10.56
2017-10-27T18:21:05.410Z,10.53
2017-10-27T18:23:32.864Z,10.52
2017-10-27T18:26:00.444Z,10.46
2017-10-27T18:28:27.954Z,10.44
2017-10-27T18:30:55.438Z,10.47
2017-10-27T18:33:22.946Z,10.56
2017-10-27T18:35:50.432Z,10.59
2017-10-27T18:38:18.092Z,10.59
2017-10-27T18:40:45.696Z,10.72
2017-10-27T18:43:13.192Z,10.72
2017-10-27T18:45:40.679Z,10.74
2017-10-27T18:48:08.173Z,10.78
2017-10-27T18:50:35.654Z,10.85
2017-10-27T18:53:03.155Z,10.86
2017-10-27T18:58:03.486Z,10.86
2017-10-27T19:00:31.263Z,10.89
2017-10-27T19:02:58.811Z,10.90
2017-10-27T19:05:26.307Z,11.00
2017-10-27T19:07:53.858Z,11.03
2017-10-27T19:10:21.325Z,11.06
2017-10-27T19:12:48.854Z,11.10
2017-10-27T19:15:16.450Z,11.05
2017-10-27T19:17:43.964Z,11.02
2017-10-27T19:20:11.451Z,11.06
2017-10-27T19:22:38.937Z,11.04
2017-10-27T19:25:06.395Z,11.00
2017-10-27T19:27:33.876Z,10.97
2017-10-27T19:30:01.398Z,10.99
2017-10-27T19:32:28.921Z,11.04
2017-10-27T19:34:56.404Z,10.91
2017-10-27T19:37:23.924Z,10.93
2017-10-27T19:39:51.388Z,10.87
2017-10-27T19:42:18.846Z,10.93
2017-10-27T19:44:46.363Z,10.89
2017-10-27T19:47:13.873Z,10.93
2017-10-27T19:49:41.341Z,10.86
2017-10-27T19:52:08.837Z,10.88
2017-10-27T19:54:36.316Z,10.95
2017-10-27T19:57:03.816Z,10.93
2017-10-27T19:59:31.309Z,10.91
2017-10-27T20:01:58.760Z,10.88
2017-10-27T20:04:26.224Z,10.86
2017-10-27T20:06:53.716Z,10.94
2017-10-27T20:09:21.254Z,10.96
2017-10-27T20:11:48.722Z,10.92
2017-10-27T20:14:16.281Z,10.94
2017-10-27T20:16:43.763Z,10.95
2017-10-27T20:19:11.231Z,10.87
2017-10-27T20:21:38.734Z,10.87
2017-10-27T20:24:06.195Z,10.86
2017-10-27T20:26:33.658Z,10.83
2017-10-27T20:29:01.168Z,10.87
2017-10-27T20:31:28.711Z,10.96
2017-10-27T20:33:56.178Z,10.93
2017-10-27T20:36:23.677Z,10.97
2017-10-27T20:38:51.163Z,10.97
2017-10-27T20:41:18.851Z,11.01
2017-10-27T20:43:46.346Z,11.03
2017-10-27T20:46:13.832Z,11.03
2017-10-27T20:48:41.401Z,11.05
2017-10-27T20:51:08.938Z,11.07
2017-10-27T20:53:36.396Z,11.07
2017-10-27T20:56:03.873Z,11.18
2017-10-27T20:58:31.757Z,11.16
2017-10-27T21:00:59.227Z,11.10
2017-10-27T21:03:26.706Z,11.24
2017-10-27T21:05:54.202Z,11.20
2017-10-27T21:08:21.678Z,11.14
2017-10-27T21:10:49.185Z,11.18
2017-10-27T21:13:16.693Z,11.22
2017-10-27T21:15:44.147Z,11.20
2017-10-27T21:18:11.635Z,11.14
2017-10-27T21:20:39.146Z,11.14
2017-10-27T21:23:06.610Z,11.12
2017-10-27T21:25:34.076Z,11.16
2017-10-27T21:28:01.586Z,11.14
2017-10-27T21:30:29.133Z,11.19
2017-10-27T21:32:56.675Z,11.24
2017-10-27T21:35:24.164Z,11.01
2017-10-27T21:37:51.689Z,11.06
2017-10-27T21:40:19.161Z,11.06
2017-10-27T21:42:46.654Z,11.02
2017-10-27T21:45:14.101Z,11.01
2017-10-27T21:47:41.561Z,10.98
2017-10-27T21:50:09.083Z,11.03
2017-10-27T21:52:36.541Z,10.97
2017-10-27T21:55:04.024Z,10.98
2017-10-27T21:57:31.588Z,11.05
2017-10-27T21:59:59.036Z,11.05
2017-10-27T22:02:26.521Z,11.00
2017-10-27T22:04:54.024Z,11.01
2017-10-27T22:07:21.544Z,10.99
2017-10-27T22:09:49.024Z,10.99
2017-10-27T22:12:16.506Z,10.99
2017-10-27T22:14:43.985Z,11.01
2017-10-27T22:17:11.433Z,11.01
2017-10-27T22:19:38.941Z,11.02
2017-10-27T22:22:06.428Z,11.04
2017-10-27T22:24:33.924Z,11.08
2017-10-27T22:27:01.441Z,11.00
2017-10-27T22:29:28.900Z,11.06
2017-10-27T22:31:56.369Z,11.03
2017-10-27T22:34:23.930Z,11.09
2017-10-27T22:36:51.402Z,11.06
2017-10-27T22:39:18.882Z,11.01
2017-10-27T22:41:46.384Z,11.03
2017-10-27T22:44:13.880Z,10.95
2017-10-27T22:46:41.368Z,10.91
2017-10-27T22:49:08.911Z,11.01
2017-10-27T22:51:36.392Z,11.00
2017-10-27T22:54:03.858Z,11.03
2017-10-27T22:56:32.373Z,10.91
2017-10-27T22:58:59.830Z,10.93
2017-10-27T23:01:27.296Z,10.83
2017-10-27T23:03:54.809Z,10.76
2017-10-27T23:06:22.269Z,10.77
2017-10-27T23:08:49.738Z,10.78
2017-10-27T23:11:17.254Z,10.77
2017-10-27T23:13:44.709Z,10.72
2017-10-27T23:16:12.197Z,10.71
2017-10-27T23:18:39.966Z,10.73
2017-10-27T23:21:07.436Z,10.68
2017-10-27T23:23:34.891Z,10.82
2017-10-27T23:26:02.389Z,10.82
2017-10-27T23:28:29.953Z,10.77
2017-10-27T23:30:57.450Z,10.81
2017-10-27T23:33:24.957Z,10.75
2017-10-27T23:35:52.448Z,10.70
2017-10-27T23:38:19.909Z,10.57
2017-10-27T23:40:47.444Z,10.36
2017-10-27T23:43:14.914Z,10.08
2017-10-27T23:45:42.386Z,9.98
2017-10-27T23:48:09.890Z,9.90
2017-10-27T23:50:37.344Z,9.61
2017-10-27T23:53:04.807Z,9.49
2017-10-27T23:55:32.286Z,9.43
2017-10-27T23:57:59.756Z,9.54
